Sisseton, South Dakota
Current Conditions -  °F | °C
As of 5:16 PM on Wednesday 17 Dec 2014 (Local Time) from KETH Reporting Station
Clear Clear  
Wind Chill:   Ceiling: Unl
Heat Index:   Visibility: 10mi
Dew Point:   Wind: 0mph
Humidity: 92%   Direction: NA
Pressure: 30.33"   Gusts: NA
Location:  45.66°N, 97.05°W
Report Text: KETH 172316Z AUTO 00000KT 10SM CLR M13/M14 A3033 RMK AO2
Loading
Personal Weather Stations






























Interactive Weather Map New forecast layout! Learn more

10-Day Weather Forecast

Advertisements
Track Severe Weather on mobile